sensor_id;sensor_type;location;lat;lon;timestamp;pressure;altitude;pressure_sealevel;temperature;humidity
69848;BME280;57143;55.940;37.496;2023-02-17T00:00:32;98758.78;;;-6.28;100.00
69848;BME280;57143;55.940;37.496;2023-02-17T00:03:01;98720.91;;;-6.36;100.00
69848;BME280;57143;55.940;37.496;2023-02-17T00:05:28;98755.34;;;-6.19;100.00
69848;BME280;57143;55.940;37.496;2023-02-17T00:07:55;98739.94;;;-6.23;100.00
69848;BME280;57143;55.940;37.496;2023-02-17T00:10:22;98734.34;;;-6.30;100.00
69848;BME280;57143;55.940;37.496;2023-02-17T00:12:49;98752.97;;;-6.22;100.00
69848;BME280;57143;55.940;37.496;2023-02-17T00:15:16;98755.34;;;-6.19;100.00
69848;BME280;57143;55.940;37.496;2023-02-17T00:17:44;98739.38;;;-6.17;100.00
69848;BME280;57143;55.940;37.496;2023-02-17T00:20:12;98744.81;;;-6.09;100.00
69848;BME280;57143;55.940;37.496;2023-02-17T00:22:39;98747.72;;;-6.12;100.00
69848;BME280;57143;55.940;37.496;2023-02-17T00:25:07;98743.69;;;-6.16;100.00
69848;BME280;57143;55.940;37.496;2023-02-17T00:27:34;98737.69;;;-6.28;100.00
69848;BME280;57143;55.940;37.496;2023-02-17T00:30:01;98748.13;;;-6.07;100.00
69848;BME280;57143;55.940;37.496;2023-02-17T00:32:30;98745.78;;;-6.10;100.00
69848;BME280;57143;55.940;37.496;2023-02-17T00:34:57;98736.47;;;-6.24;100.00
69848;BME280;57143;55.940;37.496;2023-02-17T00:37:25;98745.78;;;-6.20;100.00
69848;BME280;57143;55.940;37.496;2023-02-17T00:39:52;98722.44;;;-6.24;100.00
69848;BME280;57143;55.940;37.496;2023-02-17T00:42:20;98724.94;;;-6.23;100.00
69848;BME280;57143;55.940;37.496;2023-02-17T00:44:47;98718.72;;;-6.22;100.00
69848;BME280;57143;55.940;37.496;2023-02-17T00:47:14;98728.16;;;-6.10;100.00
69848;BME280;57143;55.940;37.496;2023-02-17T00:49:41;98719.53;;;-6.02;100.00
69848;BME280;57143;55.940;37.496;2023-02-17T00:52:08;98714.00;;;-6.09;100.00
69848;BME280;57143;55.940;37.496;2023-02-17T00:54:37;98725.94;;;-5.95;100.00
69848;BME280;57143;55.940;37.496;2023-02-17T00:57:05;98709.69;;;-6.00;100.00
69848;BME280;57143;55.940;37.496;2023-02-17T00:59:32;98717.34;;;-5.97;100.00
69848;BME280;57143;55.940;37.496;2023-02-17T01:01:59;98718.03;;;-5.95;100.00
69848;BME280;57143;55.940;37.496;2023-02-17T01:04:26;98671.25;;;-6.22;100.00
69848;BME280;57143;55.940;37.496;2023-02-17T01:06:53;98699.00;;;-6.08;100.00
69848;BME280;57143;55.940;37.496;2023-02-17T01:09:21;98713.59;;;-6.04;100.00
69848;BME280;57143;55.940;37.496;2023-02-17T01:11:49;98708.03;;;-5.92;100.00
69848;BME280;57143;55.940;37.496;2023-02-17T01:14:16;98717.19;;;-6.05;100.00
69848;BME280;57143;55.940;37.496;2023-02-17T01:16:46;98716.66;;;-5.99;100.00
69848;BME280;57143;55.940;37.496;2023-02-17T01:19:17;98728.31;;;-6.11;100.00
69848;BME280;57143;55.940;37.496;2023-02-17T01:21:44;98726.91;;;-6.15;100.00
69848;BME280;57143;55.940;37.496;2023-02-17T01:24:12;98720.25;;;-6.10;100.00
69848;BME280;57143;55.940;37.496;2023-02-17T01:26:39;98717.34;;;-6.16;100.00
69848;BME280;57143;55.940;37.496;2023-02-17T01:29:08;98723.84;;;-6.11;100.00
69848;BME280;57143;55.940;37.496;2023-02-17T01:31:36;98715.50;;;-6.25;100.00
69848;BME280;57143;55.940;37.496;2023-02-17T01:34:05;98728.41;;;-6.22;100.00
69848;BME280;57143;55.940;37.496;2023-02-17T01:36:32;98693.16;;;-6.31;100.00
69848;BME280;57143;55.940;37.496;2023-02-17T01:38:59;98719.13;;;-6.07;100.00
69848;BME280;57143;55.940;37.496;2023-02-17T01:41:27;98716.91;;;-6.02;100.00
69848;BME280;57143;55.940;37.496;2023-02-17T01:44:12;98653.06;;;-6.44;100.00
69848;BME280;57143;55.940;37.496;2023-02-17T01:46:42;98706.22;;;-6.10;100.00
69848;BME280;57143;55.940;37.496;2023-02-17T01:49:29;98726.75;;;-6.14;100.00
69848;BME280;57143;55.940;37.496;2023-02-17T01:52:00;98733.81;;;-6.14;100.00
69848;BME280;57143;55.940;37.496;2023-02-17T01:54:35;98703.28;;;-6.36;100.00
69848;BME280;57143;55.940;37.496;2023-02-17T01:57:04;98741.50;;;-6.11;100.00
69848;BME280;57143;55.940;37.496;2023-02-17T01:59:33;98736.78;;;-6.08;100.00
69848;BME280;57143;55.940;37.496;2023-02-17T02:02:02;98752.75;;;-6.09;100.00
69848;BME280;57143;55.940;37.496;2023-02-17T02:04:33;98765.34;;;-6.13;100.00
69848;BME280;57143;55.940;37.496;2023-02-17T02:07:02;98767.53;;;-6.18;100.00
69848;BME280;57143;55.940;37.496;2023-02-17T02:09:34;98765.19;;;-6.21;100.00
69848;BME280;57143;55.940;37.496;2023-02-17T02:14:42;98749.94;;;-6.17;100.00
69848;BME280;57143;55.940;37.496;2023-02-17T02:17:14;98739.09;;;-6.14;100.00
69848;BME280;57143;55.940;37.496;2023-02-17T02:20:06;98738.28;;;-6.05;100.00
69848;BME280;57143;55.940;37.496;2023-02-17T02:22:57;98729.69;;;-6.07;100.00
69848;BME280;57143;55.940;37.496;2023-02-17T02:25:48;98723.31;;;-5.85;100.00
69848;BME280;57143;55.940;37.496;2023-02-17T02:28:33;98718.88;;;-6.04;100.00
69848;BME280;57143;55.940;37.496;2023-02-17T02:31:20;98669.72;;;-6.24;100.00
69848;BME280;57143;55.940;37.496;2023-02-17T02:33:58;98721.78;;;-5.88;100.00
69848;BME280;57143;55.940;37.496;2023-02-17T02:36:30;98736.34;;;-5.94;100.00
69848;BME280;57143;55.940;37.496;2023-02-17T02:39:01;98721.09;;;-6.00;100.00
69848;BME280;57143;55.940;37.496;2023-02-17T02:41:32;98721.09;;;-6.00;100.00
69848;BME280;57143;55.940;37.496;2023-02-17T02:44:03;98698.16;;;-6.09;100.00
69848;BME280;57143;55.940;37.496;2023-02-17T02:46:30;98715.53;;;-6.06;100.00
69848;BME280;57143;55.940;37.496;2023-02-17T02:48:59;98720.41;;;-6.11;100.00
69848;BME280;57143;55.940;37.496;2023-02-17T02:51:35;98738.44;;;-6.16;100.00
69848;BME280;57143;55.940;37.496;2023-02-17T02:54:16;98699.53;;;-6.33;100.00
69848;BME280;57143;55.940;37.496;2023-02-17T02:57:03;98740.22;;;-6.07;100.00
69848;BME280;57143;55.940;37.496;2023-02-17T02:59:42;98762.72;;;-6.13;100.00
69848;BME280;57143;55.940;37.496;2023-02-17T03:02:17;98745.22;;;-6.14;100.00
69848;BME280;57143;55.940;37.496;2023-02-17T03:04:56;98730.63;;;-6.18;100.00
69848;BME280;57143;55.940;37.496;2023-02-17T03:07:31;98736.34;;;-6.13;100.00
69848;BME280;57143;55.940;37.496;2023-02-17T03:10:00;98727.59;;;-6.13;100.00
69848;BME280;57143;55.940;37.496;2023-02-17T03:12:29;98728.03;;;-6.08;100.00
69848;BME280;57143;55.940;37.496;2023-02-17T03:15:01;98728.03;;;-6.08;100.00
69848;BME280;57143;55.940;37.496;2023-02-17T03:17:30;98703.44;;;-6.09;100.00
69848;BME280;57143;55.940;37.496;2023-02-17T03:20:00;98704.69;;;-6.22;100.00
69848;BME280;57143;55.940;37.496;2023-02-17T03:22:31;98720.94;;;-6.08;100.00
69848;BME280;57143;55.940;37.496;2023-02-17T03:24:59;98706.09;;;-6.18;100.00
69848;BME280;57143;55.940;37.496;2023-02-17T03:27:26;98696.38;;;-6.08;100.00
69848;BME280;57143;55.940;37.496;2023-02-17T03:29:54;98694.84;;;-6.11;100.00
69848;BME280;57143;55.940;37.496;2023-02-17T03:32:21;98686.13;;;-6.11;100.00
69848;BME280;57143;55.940;37.496;2023-02-17T03:34:48;98672.22;;;-6.04;100.00
69848;BME280;57143;55.940;37.496;2023-02-17T03:37:17;98675.41;;;-6.00;100.00
69848;BME280;57143;55.940;37.496;2023-02-17T03:39:44;98667.75;;;-5.94;100.00
69848;BME280;57143;55.940;37.496;2023-02-17T03:42:11;98671.25;;;-5.93;100.00
69848;BME280;57143;55.940;37.496;2023-02-17T03:44:38;98668.47;;;-5.92;100.00
69848;BME280;57143;55.940;37.496;2023-02-17T03:47:06;98667.09;;;-5.96;100.00
69848;BME280;57143;55.940;37.496;2023-02-17T03:49:33;98671.41;;;-6.04;100.00
69848;BME280;57143;55.940;37.496;2023-02-17T03:52:00;98665.00;;;-6.02;100.00
69848;BME280;57143;55.940;37.496;2023-02-17T03:54:29;98665.28;;;-6.05;100.00
69848;BME280;57143;55.940;37.496;2023-02-17T03:56:56;98660.16;;;-6.06;100.00
69848;BME280;57143;55.940;37.496;2023-02-17T03:59:26;98664.31;;;-6.04;100.00
69848;BME280;57143;55.940;37.496;2023-02-17T04:01:53;98650.31;;;-6.23;100.00
69848;BME280;57143;55.940;37.496;2023-02-17T04:04:20;98654.19;;;-6.08;100.00
69848;BME280;57143;55.940;37.496;2023-02-17T04:06:47;98652.25;;;-6.06;100.00
69848;BME280;57143;55.940;37.496;2023-02-17T04:09:14;98657.53;;;-6.06;100.00
69848;BME280;57143;55.940;37.496;2023-02-17T04:11:43;98507.16;;;-6.90;100.00
69848;BME280;57143;55.940;37.496;2023-02-17T04:14:10;98639.63;;;-6.03;100.00
69848;BME280;57143;55.940;37.496;2023-02-17T04:16:37;98638.75;;;-5.94;100.00
69848;BME280;57143;55.940;37.496;2023-02-17T04:19:04;98626.97;;;-5.99;100.00
69848;BME280;57143;55.940;37.496;2023-02-17T04:21:32;98622.00;;;-6.12;100.00
69848;BME280;57143;55.940;37.496;2023-02-17T04:24:00;98616.84;;;-6.04;100.00
69848;BME280;57143;55.940;37.496;2023-02-17T04:26:27;98622.13;;;-6.04;100.00
69848;BME280;57143;55.940;37.496;2023-02-17T04:28:56;98604.22;;;-6.10;100.00
69848;BME280;57143;55.940;37.496;2023-02-17T04:31:23;98603.94;;;-6.07;100.00
69848;BME280;57143;55.940;37.496;2023-02-17T04:33:52;98591.03;;;-6.10;100.00
69848;BME280;57143;55.940;37.496;2023-02-17T04:36:19;98579.66;;;-6.10;100.00
69848;BME280;57143;55.940;37.496;2023-02-17T04:38:47;98589.66;;;-6.04;100.00
69848;BME280;57143;55.940;37.496;2023-02-17T04:41:14;98566.22;;;-6.17;100.00
69848;BME280;57143;55.940;37.496;2023-02-17T04:43:41;98558.59;;;-6.20;100.00
69848;BME280;57143;55.940;37.496;2023-02-17T04:46:09;98553.88;;;-6.26;100.00
69848;BME280;57143;55.940;37.496;2023-02-17T04:48:37;98558.84;;;-6.13;100.00
69848;BME280;57143;55.940;37.496;2023-02-17T04:51:05;98554.28;;;-6.11;100.00
69848;BME280;57143;55.940;37.496;2023-02-17T04:53:32;98542.03;;;-6.12;100.00
69848;BME280;57143;55.940;37.496;2023-02-17T04:55:59;98529.31;;;-6.17;100.00
69848;BME280;57143;55.940;37.496;2023-02-17T04:58:26;98531.34;;;-6.11;100.00
69848;BME280;57143;55.940;37.496;2023-02-17T05:00:53;98542.63;;;-6.18;100.00
69848;BME280;57143;55.940;37.496;2023-02-17T05:03:25;98532.22;;;-6.20;100.00
69848;BME280;57143;55.940;37.496;2023-02-17T05:05:52;98500.59;;;-6.20;100.00
69848;BME280;57143;55.940;37.496;2023-02-17T05:08:20;98507.78;;;-6.12;100.00
69848;BME280;57143;55.940;37.496;2023-02-17T05:10:49;98491.56;;;-6.17;100.00
69848;BME280;57143;55.940;37.496;2023-02-17T05:13:17;98491.53;;;-6.08;100.00
69848;BME280;57143;55.940;37.496;2023-02-17T05:15:44;98484.88;;;-6.12;100.00
69848;BME280;57143;55.940;37.496;2023-02-17T05:18:12;98460.06;;;-6.19;100.00
69848;BME280;57143;55.940;37.496;2023-02-17T05:20:41;98479.72;;;-6.04;100.00
69848;BME280;57143;55.940;37.496;2023-02-17T05:23:08;98484.19;;;-6.04;100.00
69848;BME280;57143;55.940;37.496;2023-02-17T05:25:36;98468.91;;;-6.01;100.00
69848;BME280;57143;55.940;37.496;2023-02-17T05:28:05;98452.78;;;-5.98;100.00
69848;BME280;57143;55.940;37.496;2023-02-17T05:30:32;98468.69;;;-5.89;100.00
69848;BME280;57143;55.940;37.496;2023-02-17T05:32:59;98464.50;;;-5.82;100.00
69848;BME280;57143;55.940;37.496;2023-02-17T05:35:26;98473.56;;;-5.95;100.00
69848;BME280;57143;55.940;37.496;2023-02-17T05:37:55;98478.72;;;-5.93;100.00
69848;BME280;57143;55.940;37.496;2023-02-17T05:40:22;98473.28;;;-5.92;100.00
69848;BME280;57143;55.940;37.496;2023-02-17T05:42:49;98470.41;;;-5.98;100.00
69848;BME280;57143;55.940;37.496;2023-02-17T05:45:17;98465.84;;;-6.06;100.00
69848;BME280;57143;55.940;37.496;2023-02-17T05:47:44;98480.09;;;-5.89;100.00
69848;BME280;57143;55.940;37.496;2023-02-17T05:50:11;98479.66;;;-5.84;100.00
69848;BME280;57143;55.940;37.496;2023-02-17T05:52:38;98466.59;;;-5.86;100.00
69848;BME280;57143;55.940;37.496;2023-02-17T05:55:07;98478.84;;;-5.85;100.00
69848;BME280;57143;55.940;37.496;2023-02-17T05:57:35;98496.97;;;-5.82;100.00
69848;BME280;57143;55.940;37.496;2023-02-17T06:00:03;98486.59;;;-5.66;100.00
69848;BME280;57143;55.940;37.496;2023-02-17T06:02:30;98492.72;;;-5.65;100.00
69848;BME280;57143;55.940;37.496;2023-02-17T06:04:57;98503.66;;;-5.60;100.00
69848;BME280;57143;55.940;37.496;2023-02-17T06:07:25;98512.34;;;-5.68;100.00
69848;BME280;57143;55.940;37.496;2023-02-17T06:09:52;98493.19;;;-5.79;100.00
69848;BME280;57143;55.940;37.496;2023-02-17T06:12:20;98515.78;;;-5.67;100.00
69848;BME280;57143;55.940;37.496;2023-02-17T06:14:47;98521.44;;;-5.62;100.00
69848;BME280;57143;55.940;37.496;2023-02-17T06:17:14;98532.44;;;-5.57;100.00
69848;BME280;57143;55.940;37.496;2023-02-17T06:19:42;98534.53;;;-5.61;100.00
69848;BME280;57143;55.940;37.496;2023-02-17T06:22:09;98548.53;;;-5.60;100.00
69848;BME280;57143;55.940;37.496;2023-02-17T06:24:36;98555.34;;;-5.58;100.00
69848;BME280;57143;55.940;37.496;2023-02-17T06:27:03;98555.34;;;-5.58;100.00
69848;BME280;57143;55.940;37.496;2023-02-17T06:29:32;98542.16;;;-5.58;100.00
69848;BME280;57143;55.940;37.496;2023-02-17T06:31:59;98549.91;;;-5.56;100.00
69848;BME280;57143;55.940;37.496;2023-02-17T06:34:27;98550.06;;;-5.58;100.00
69848;BME280;57143;55.940;37.496;2023-02-17T06:36:54;98567.91;;;-5.42;100.00
69848;BME280;57143;55.940;37.496;2023-02-17T06:39:21;98542.25;;;-5.50;100.00
69848;BME280;57143;55.940;37.496;2023-02-17T06:41:49;98570.94;;;-5.37;100.00
69848;BME280;57143;55.940;37.496;2023-02-17T06:44:16;98526.63;;;-5.61;100.00
69848;BME280;57143;55.940;37.496;2023-02-17T06:46:44;98561.31;;;-5.29;100.00
69848;BME280;57143;55.940;37.496;2023-02-17T06:49:12;98575.59;;;-5.22;100.00
69848;BME280;57143;55.940;37.496;2023-02-17T06:51:39;98576.72;;;-5.24;100.00
69848;BME280;57143;55.940;37.496;2023-02-17T06:54:06;98577.25;;;-5.21;100.00
69848;BME280;57143;55.940;37.496;2023-02-17T06:56:34;98578.94;;;-5.20;100.00
69848;BME280;57143;55.940;37.496;2023-02-17T06:59:01;98573.44;;;-5.09;100.00
69848;BME280;57143;55.940;37.496;2023-02-17T07:01:28;98573.34;;;-5.17;100.00
69848;BME280;57143;55.940;37.496;2023-02-17T07:03:57;98574.03;;;-5.15;100.00
69848;BME280;57143;55.940;37.496;2023-02-17T07:06:25;98577.94;;;-5.19;100.00
69848;BME280;57143;55.940;37.496;2023-02-17T07:08:52;98585.47;;;-5.24;100.00
69848;BME280;57143;55.940;37.496;2023-02-17T07:11:20;98577.66;;;-5.16;100.00
69848;BME280;57143;55.940;37.496;2023-02-17T07:13:47;98575.13;;;-5.08;100.00
69848;BME280;57143;55.940;37.496;2023-02-17T07:16:15;98543.53;;;-5.27;100.00
69848;BME280;57143;55.940;37.496;2023-02-17T07:18:42;98569.38;;;-5.03;100.00
69848;BME280;57143;55.940;37.496;2023-02-17T07:21:10;98569.63;;;-4.97;100.00
69848;BME280;57143;55.940;37.496;2023-02-17T07:23:37;98564.09;;;-5.03;100.00
69848;BME280;57143;55.940;37.496;2023-02-17T07:26:06;98537.09;;;-5.24;100.00
69848;BME280;57143;55.940;37.496;2023-02-17T07:28:34;98589.63;;;-4.94;100.00
69848;BME280;57143;55.940;37.496;2023-02-17T07:31:04;98588.94;;;-4.96;100.00
69848;BME280;57143;55.940;37.496;2023-02-17T07:33:32;98593.78;;;-4.92;100.00
69848;BME280;57143;55.940;37.496;2023-02-17T07:36:03;98592.47;;;-5.05;100.00
69848;BME280;57143;55.940;37.496;2023-02-17T07:38:32;98595.88;;;-5.13;100.00
69848;BME280;57143;55.940;37.496;2023-02-17T07:41:03;98601.22;;;-5.05;100.00
69848;BME280;57143;55.940;37.496;2023-02-17T07:43:31;98616.25;;;-5.05;100.00
69848;BME280;57143;55.940;37.496;2023-02-17T07:45:58;98592.22;;;-5.12;100.00
69848;BME280;57143;55.940;37.496;2023-02-17T07:48:25;98615.44;;;-5.06;100.00
69848;BME280;57143;55.940;37.496;2023-02-17T07:50:52;98602.00;;;-4.95;100.00
69848;BME280;57143;55.940;37.496;2023-02-17T07:53:19;98604.06;;;-4.89;100.00
69848;BME280;57143;55.940;37.496;2023-02-17T07:55:48;98607.09;;;-4.84;100.00
69848;BME280;57143;55.940;37.496;2023-02-17T07:58:16;98600.28;;;-4.86;100.00
69848;BME280;57143;55.940;37.496;2023-02-17T08:00:43;98590.63;;;-4.78;100.00
69848;BME280;57143;55.940;37.496;2023-02-17T08:03:10;98596.00;;;-4.87;100.00
69848;BME280;57143;55.940;37.496;2023-02-17T08:05:38;98599.03;;;-4.82;100.00
69848;BME280;57143;55.940;37.496;2023-02-17T08:08:06;98601.81;;;-4.84;100.00
69848;BME280;57143;55.940;37.496;2023-02-17T08:10:52;98590.41;;;-4.84;100.00
69848;BME280;57143;55.940;37.496;2023-02-17T08:13:37;98583.59;;;-4.87;100.00
69848;BME280;57143;55.940;37.496;2023-02-17T08:16:04;98577.56;;;-4.79;100.00
69848;BME280;57143;55.940;37.496;2023-02-17T08:18:31;98571.22;;;-4.86;100.00
69848;BME280;57143;55.940;37.496;2023-02-17T08:21:00;98580.44;;;-4.73;100.00
69848;BME280;57143;55.940;37.496;2023-02-17T08:23:27;98533.69;;;-4.90;100.00
69848;BME280;57143;55.940;37.496;2023-02-17T08:25:57;98572.91;;;-4.50;100.00
69848;BME280;57143;55.940;37.496;2023-02-17T08:28:25;98561.06;;;-4.46;100.00
69848;BME280;57143;55.940;37.496;2023-02-17T08:30:52;98573.28;;;-4.45;100.00
69848;BME280;57143;55.940;37.496;2023-02-17T08:33:19;98569.53;;;-4.42;100.00
69848;BME280;57143;55.940;37.496;2023-02-17T08:35:46;98570.91;;;-4.38;100.00
69848;BME280;57143;55.940;37.496;2023-02-17T08:38:14;98581.59;;;-4.40;100.00
69848;BME280;57143;55.940;37.496;2023-02-17T08:40:41;98577.16;;;-4.39;100.00
69848;BME280;57143;55.940;37.496;2023-02-17T08:43:09;98584.94;;;-4.38;100.00
69848;BME280;57143;55.940;37.496;2023-02-17T08:45:37;98572.63;;;-4.29;100.00
69848;BME280;57143;55.940;37.496;2023-02-17T08:48:04;98590.84;;;-4.26;100.00
69848;BME280;57143;55.940;37.496;2023-02-17T08:50:31;98590.38;;;-4.22;100.00
69848;BME280;57143;55.940;37.496;2023-02-17T08:52:59;98583.81;;;-4.18;100.00
69848;BME280;57143;55.940;37.496;2023-02-17T08:55:26;98589.00;;;-4.08;100.00
69848;BME280;57143;55.940;37.496;2023-02-17T08:57:53;98585.31;;;-4.15;100.00
69848;BME280;57143;55.940;37.496;2023-02-17T09:00:22;98570.28;;;-4.15;100.00
69848;BME280;57143;55.940;37.496;2023-02-17T09:02:49;98576.72;;;-3.92;100.00
69848;BME280;57143;55.940;37.496;2023-02-17T09:05:17;98587.41;;;-4.01;100.00
69848;BME280;57143;55.940;37.496;2023-02-17T09:07:45;98592.63;;;-4.09;100.00
69848;BME280;57143;55.940;37.496;2023-02-17T09:10:12;98613.91;;;-3.93;100.00
69848;BME280;57143;55.940;37.496;2023-02-17T09:12:39;98585.94;;;-4.21;100.00
69848;BME280;57143;55.940;37.496;2023-02-17T09:15:07;98624.97;;;-3.98;100.00
69848;BME280;57143;55.940;37.496;2023-02-17T09:17:39;98656.09;;;-3.92;100.00
69848;BME280;57143;55.940;37.496;2023-02-17T09:20:07;98684.31;;;-4.18;100.00
69848;BME280;57143;55.940;37.496;2023-02-17T09:22:34;98684.94;;;-4.06;100.00
69848;BME280;57143;55.940;37.496;2023-02-17T09:25:02;98659.22;;;-4.14;100.00
69848;BME280;57143;55.940;37.496;2023-02-17T09:27:30;98676.22;;;-3.81;100.00
69848;BME280;57143;55.940;37.496;2023-02-17T09:29:57;98694.00;;;-3.91;100.00
69848;BME280;57143;55.940;37.496;2023-02-17T09:32:24;98693.78;;;-3.98;100.00
69848;BME280;57143;55.940;37.496;2023-02-17T09:34:53;98715.78;;;-3.80;100.00
69848;BME280;57143;55.940;37.496;2023-02-17T09:37:20;98707.69;;;-3.78;100.00
69848;BME280;57143;55.940;37.496;2023-02-17T09:39:48;98723.31;;;-3.85;100.00
69848;BME280;57143;55.940;37.496;2023-02-17T09:42:18;98696.50;;;-4.07;100.00
69848;BME280;57143;55.940;37.496;2023-02-17T09:44:48;98720.31;;;-3.72;100.00
69848;BME280;57143;55.940;37.496;2023-02-17T09:47:20;98710.19;;;-3.77;100.00
69848;BME280;57143;55.940;37.496;2023-02-17T09:49:51;98729.84;;;-3.62;100.00
69848;BME280;57143;55.940;37.496;2023-02-17T09:52:26;98725.75;;;-3.56;100.00
69848;BME280;57143;55.940;37.496;2023-02-17T09:55:00;98714.94;;;-3.63;100.00
69848;BME280;57143;55.940;37.496;2023-02-17T09:57:33;98722.78;;;-3.71;100.00
69848;BME280;57143;55.940;37.496;2023-02-17T10:00:06;98707.97;;;-3.64;100.00
69848;BME280;57143;55.940;37.496;2023-02-17T10:02:39;98715.00;;;-3.55;100.00
69848;BME280;57143;55.940;37.496;2023-02-17T10:05:10;98708.94;;;-3.47;100.00
69848;BME280;57143;55.940;37.496;2023-02-17T10:07:45;98718.53;;;-3.46;100.00
69848;BME280;57143;55.940;37.496;2023-02-17T10:10:18;98692.44;;;-3.59;100.00
69848;BME280;57143;55.940;37.496;2023-02-17T10:12:50;98717.50;;;-3.53;100.00
69848;BME280;57143;55.940;37.496;2023-02-17T10:15:22;98721.50;;;-3.49;100.00
69848;BME280;57143;55.940;37.496;2023-02-17T10:17:56;98698.34;;;-3.47;100.00
69848;BME280;57143;55.940;37.496;2023-02-17T10:20:27;98722.19;;;-3.47;100.00
69848;BME280;57143;55.940;37.496;2023-02-17T10:23:03;98729.19;;;-3.38;100.00
69848;BME280;57143;55.940;37.496;2023-02-17T10:25:48;98713.00;;;-3.35;100.00
69848;BME280;57143;55.940;37.496;2023-02-17T10:28:23;98714.63;;;-3.42;100.00
69848;BME280;57143;55.940;37.496;2023-02-17T10:31:00;98648.06;;;-3.65;100.00
69848;BME280;57143;55.940;37.496;2023-02-17T10:33:33;98707.09;;;-3.29;100.00
69848;BME280;57143;55.940;37.496;2023-02-17T10:36:10;98685.16;;;-3.13;100.00
69848;BME280;57143;55.940;37.496;2023-02-17T10:38:46;98690.09;;;-3.18;100.00
69848;BME280;57143;55.940;37.496;2023-02-17T10:41:20;98709.22;;;-3.32;100.00
69848;BME280;57143;55.940;37.496;2023-02-17T10:43:48;98707.84;;;-3.36;100.00
69848;BME280;57143;55.940;37.496;2023-02-17T10:46:17;98696.63;;;-3.56;100.00
69848;BME280;57143;55.940;37.496;2023-02-17T10:48:47;98687.13;;;-3.41;100.00
69848;BME280;57143;55.940;37.496;2023-02-17T10:51:18;98703.13;;;-3.50;100.00
69848;BME280;57143;55.940;37.496;2023-02-17T10:53:51;98680.47;;;-3.45;100.00
69848;BME280;57143;55.940;37.496;2023-02-17T10:56:23;98663.09;;;-3.47;100.00
69848;BME280;57143;55.940;37.496;2023-02-17T10:58:56;98682.47;;;-3.47;100.00
69848;BME280;57143;55.940;37.496;2023-02-17T11:01:27;98661.66;;;-3.42;100.00
69848;BME280;57143;55.940;37.496;2023-02-17T11:03:59;98658.34;;;-3.36;100.00
69848;BME280;57143;55.940;37.496;2023-02-17T11:06:28;98652.22;;;-3.36;100.00
69848;BME280;57143;55.940;37.496;2023-02-17T11:09:00;98643.72;;;-3.22;100.00
69848;BME280;57143;55.940;37.496;2023-02-17T11:11:30;98629.16;;;-3.18;100.00
69848;BME280;57143;55.940;37.496;2023-02-17T11:14:08;98621.41;;;-3.45;100.00
69848;BME280;57143;55.940;37.496;2023-02-17T11:16:38;98646.47;;;-3.32;100.00
69848;BME280;57143;55.940;37.496;2023-02-17T11:19:16;98665.84;;;-3.31;100.00
69848;BME280;57143;55.940;37.496;2023-02-17T11:21:45;98638.09;;;-3.45;100.00
69848;BME280;57143;55.940;37.496;2023-02-17T11:24:14;98654.25;;;-3.30;100.00
69848;BME280;57143;55.940;37.496;2023-02-17T11:26:41;98637.44;;;-3.21;100.00
69848;BME280;57143;55.940;37.496;2023-02-17T11:29:13;98624.97;;;-3.29;100.00
69848;BME280;57143;55.940;37.496;2023-02-17T11:31:51;98628.81;;;-3.23;100.00
69848;BME280;57143;55.940;37.496;2023-02-17T11:34:21;98622.63;;;-3.32;100.00
69848;BME280;57143;55.940;37.496;2023-02-17T11:36:57;98586.19;;;-3.64;100.00
69848;BME280;57143;55.940;37.496;2023-02-17T11:39:26;98623.16;;;-3.54;100.00
69848;BME280;57143;55.940;37.496;2023-02-17T11:41:54;98619.69;;;-3.55;100.00
69848;BME280;57143;55.940;37.496;2023-02-17T11:44:23;98597.41;;;-3.44;100.00
69848;BME280;57143;55.940;37.496;2023-02-17T11:47:00;98597.72;;;-3.47;100.00
69848;BME280;57143;55.940;37.496;2023-02-17T11:49:55;98550.56;;;-3.69;100.00
69848;BME280;57143;55.940;37.496;2023-02-17T11:52:49;98560.75;;;-3.57;100.00
69848;BME280;57143;55.940;37.496;2023-02-17T11:55:30;98532.72;;;-3.67;100.00
69848;BME280;57143;55.940;37.496;2023-02-17T11:58:16;98578.03;;;-3.44;100.00
69848;BME280;57143;55.940;37.496;2023-02-17T12:00:54;98552.03;;;-3.49;100.00
69848;BME280;57143;55.940;37.496;2023-02-17T12:03:40;98568.13;;;-3.34;100.00
69848;BME280;57143;55.940;37.496;2023-02-17T12:06:13;98558.22;;;-3.32;100.00
69848;BME280;57143;55.940;37.496;2023-02-17T12:08:55;98562.50;;;-3.39;100.00
69848;BME280;57143;55.940;37.496;2023-02-17T12:11:36;98546.38;;;-3.54;100.00
69848;BME280;57143;55.940;37.496;2023-02-17T12:14:17;98544.53;;;-3.54;100.00
69848;BME280;57143;55.940;37.496;2023-02-17T12:16:50;98554.03;;;-3.43;100.00
69848;BME280;57143;55.940;37.496;2023-02-17T12:19:32;98552.56;;;-3.37;100.00
69848;BME280;57143;55.940;37.496;2023-02-17T12:22:09;98539.50;;;-3.39;100.00
69848;BME280;57143;55.940;37.496;2023-02-17T12:24:53;98543.59;;;-3.44;100.00
69848;BME280;57143;55.940;37.496;2023-02-17T12:27:32;98531.22;;;-3.36;100.00
69848;BME280;57143;55.940;37.496;2023-02-17T12:30:29;98533.53;;;-3.41;100.00
69848;BME280;57143;55.940;37.496;2023-02-17T12:33:10;98521.72;;;-3.46;100.00
69848;BME280;57143;55.940;37.496;2023-02-17T12:35:45;98510.13;;;-3.54;100.00
69848;BME280;57143;55.940;37.496;2023-02-17T12:38:19;98472.81;;;-3.68;100.00
69848;BME280;57143;55.940;37.496;2023-02-17T12:40:54;98510.00;;;-3.44;100.00
69848;BME280;57143;55.940;37.496;2023-02-17T12:43:28;98515.63;;;-3.47;100.00
69848;BME280;57143;55.940;37.496;2023-02-17T12:45:59;98509.16;;;-3.44;100.00
69848;BME280;57143;55.940;37.496;2023-02-17T12:48:34;98507.19;;;-3.42;100.00
69848;BME280;57143;55.940;37.496;2023-02-17T12:51:06;98505.25;;;-3.32;100.00
69848;BME280;57143;55.940;37.496;2023-02-17T12:53:47;98456.97;;;-3.60;100.00
69848;BME280;57143;55.940;37.496;2023-02-17T12:59:33;98506.00;;;-3.48;100.00
69848;BME280;57143;55.940;37.496;2023-02-17T13:02:03;98473.28;;;-3.73;100.00